sensor_id;sensor_type;location;lat;lon;timestamp;pressure;altitude;pressure_sealevel;temperature;humidity
85683;BME280;76253;52.232;5.176;2024-03-08T00:02:23;101966.25;;;1.30;78.26
85683;BME280;76253;52.232;5.176;2024-03-08T00:04:48;101965.59;;;1.24;78.05
85683;BME280;76253;52.232;5.176;2024-03-08T00:07:14;101965.66;;;1.22;78.18
85683;BME280;76253;52.232;5.176;2024-03-08T00:09:41;101960.47;;;1.22;78.34
85683;BME280;76253;52.232;5.176;2024-03-08T00:12:06;101946.84;;;1.14;77.83
85683;BME280;76253;52.232;5.176;2024-03-08T00:14:32;101949.53;;;1.13;78.56
85683;BME280;76253;52.232;5.176;2024-03-08T00:16:58;101954.72;;;1.13;78.44
85683;BME280;76253;52.232;5.176;2024-03-08T00:19:24;101950.41;;;1.12;78.64
85683;BME280;76253;52.232;5.176;2024-03-08T00:21:50;101947.06;;;1.08;78.37
85683;BME280;76253;52.232;5.176;2024-03-08T00:24:16;101955.72;;;1.07;78.02
85683;BME280;76253;52.232;5.176;2024-03-08T00:26:41;101951.53;;;1.03;78.15
85683;BME280;76253;52.232;5.176;2024-03-08T00:29:07;101947.13;;;1.05;78.97
85683;BME280;76253;52.232;5.176;2024-03-08T00:31:33;101951.47;;;1.05;78.39
85683;BME280;76253;52.232;5.176;2024-03-08T00:33:58;101936.16;;;0.97;79.04
85683;BME280;76253;52.232;5.176;2024-03-08T00:36:23;101940.50;;;0.95;78.79
85683;BME280;76253;52.232;5.176;2024-03-08T00:38:50;101928.41;;;0.96;78.99
85683;BME280;76253;52.232;5.176;2024-03-08T00:41:15;101930.09;;;0.97;78.72
85683;BME280;76253;52.232;5.176;2024-03-08T00:43:40;101938.00;;;0.94;79.00
85683;BME280;76253;52.232;5.176;2024-03-08T00:46:06;101931.09;;;0.93;79.22
85683;BME280;76253;52.232;5.176;2024-03-08T00:48:31;101920.84;;;0.88;78.78
85683;BME280;76253;52.232;5.176;2024-03-08T00:50:57;101919.19;;;0.85;78.22
85683;BME280;76253;52.232;5.176;2024-03-08T00:53:22;101925.19;;;0.88;78.31
85683;BME280;76253;52.232;5.176;2024-03-08T00:55:48;101926.81;;;0.90;78.70
85683;BME280;76253;52.232;5.176;2024-03-08T00:58:13;101923.50;;;0.86;78.37
85683;BME280;76253;52.232;5.176;2024-03-08T01:00:43;101927.78;;;0.88;78.37
85683;BME280;76253;52.232;5.176;2024-03-08T01:03:10;101918.41;;;0.83;78.64
85683;BME280;76253;52.232;5.176;2024-03-08T01:05:37;101921.03;;;0.82;78.80
85683;BME280;76253;52.232;5.176;2024-03-08T01:08:03;101899.75;;;0.71;78.33
85683;BME280;76253;52.232;5.176;2024-03-08T01:10:28;101909.94;;;0.77;78.89
85683;BME280;76253;52.232;5.176;2024-03-08T01:12:54;101896.28;;;0.70;78.72
85683;BME280;76253;52.232;5.176;2024-03-08T01:15:23;101899.84;;;0.68;78.69
85683;BME280;76253;52.232;5.176;2024-03-08T01:17:49;101891.28;;;0.64;78.45
85683;BME280;76253;52.232;5.176;2024-03-08T01:20:15;101896.56;;;0.61;78.84
85683;BME280;76253;52.232;5.176;2024-03-08T01:22:40;101883.69;;;0.58;79.18
85683;BME280;76253;52.232;5.176;2024-03-08T01:25:06;101874.19;;;0.59;78.97
85683;BME280;76253;52.232;5.176;2024-03-08T01:27:34;101876.00;;;0.55;79.13
85683;BME280;76253;52.232;5.176;2024-03-08T01:30:00;101882.00;;;0.57;78.61
85683;BME280;76253;52.232;5.176;2024-03-08T01:32:26;101846.28;;;0.37;78.44
85683;BME280;76253;52.232;5.176;2024-03-08T01:34:52;101867.63;;;0.46;78.62
85683;BME280;76253;52.232;5.176;2024-03-08T01:37:17;101837.97;;;0.26;78.62
85683;BME280;76253;52.232;5.176;2024-03-08T01:39:43;101851.47;;;0.37;78.94
85683;BME280;76253;52.232;5.176;2024-03-08T01:42:08;101853.09;;;0.40;79.27
85683;BME280;76253;52.232;5.176;2024-03-08T01:44:34;101852.22;;;0.41;79.26
85683;BME280;76253;52.232;5.176;2024-03-08T01:47:00;101840.28;;;0.35;78.98
85683;BME280;76253;52.232;5.176;2024-03-08T01:49:26;101849.72;;;0.38;79.16
85683;BME280;76253;52.232;5.176;2024-03-08T01:51:53;101839.44;;;0.35;79.08
85683;BME280;76253;52.232;5.176;2024-03-08T01:54:22;101839.38;;;0.38;79.31
85683;BME280;76253;52.232;5.176;2024-03-08T01:56:48;101838.69;;;0.31;79.02
85683;BME280;76253;52.232;5.176;2024-03-08T01:59:14;101840.38;;;0.32;79.01
85683;BME280;76253;52.232;5.176;2024-03-08T02:01:40;101842.16;;;0.30;79.53
85683;BME280;76253;52.232;5.176;2024-03-08T02:04:06;101843.97;;;0.28;79.06
85683;BME280;76253;52.232;5.176;2024-03-08T02:06:32;101841.44;;;0.25;79.50
85683;BME280;76253;52.232;5.176;2024-03-08T02:08:57;101838.91;;;0.24;79.18
85683;BME280;76253;52.232;5.176;2024-03-08T02:11:23;101814.19;;;0.12;78.78
85683;BME280;76253;52.232;5.176;2024-03-08T02:13:49;101826.00;;;0.22;79.27
85683;BME280;76253;52.232;5.176;2024-03-08T02:16:20;101831.13;;;0.24;79.80
85683;BME280;76253;52.232;5.176;2024-03-08T02:18:46;101829.41;;;0.24;79.65
85683;BME280;76253;52.232;5.176;2024-03-08T02:21:12;101826.88;;;0.21;78.96
85683;BME280;76253;52.232;5.176;2024-03-08T02:23:39;101823.38;;;0.24;79.47
85683;BME280;76253;52.232;5.176;2024-03-08T02:26:05;101813.16;;;0.18;79.16
85683;BME280;76253;52.232;5.176;2024-03-08T02:28:32;101807.25;;;0.14;79.48
85683;BME280;76253;52.232;5.176;2024-03-08T02:30:59;101809.88;;;0.11;79.40
85683;BME280;76253;52.232;5.176;2024-03-08T02:33:27;101813.28;;;0.15;78.96
85683;BME280;76253;52.232;5.176;2024-03-08T02:35:53;101806.41;;;0.12;79.02
85683;BME280;76253;52.232;5.176;2024-03-08T02:38:21;101796.16;;;0.09;79.14
85683;BME280;76253;52.232;5.176;2024-03-08T02:40:51;101803.09;;;0.07;79.51
85683;BME280;76253;52.232;5.176;2024-03-08T02:43:20;101792.00;;;0.04;79.66
85683;BME280;76253;52.232;5.176;2024-03-08T02:45:47;101800.50;;;0.07;80.22
85683;BME280;76253;52.232;5.176;2024-03-08T02:48:13;101781.78;;;-0.01;79.61
85683;BME280;76253;52.232;5.176;2024-03-08T02:50:39;101791.13;;;0.03;80.17
85683;BME280;76253;52.232;5.176;2024-03-08T02:53:05;101787.72;;;0.01;79.41
85683;BME280;76253;52.232;5.176;2024-03-08T02:55:31;101786.13;;;-0.03;79.31
85683;BME280;76253;52.232;5.176;2024-03-08T02:57:58;101784.41;;;-0.04;79.31
85683;BME280;76253;52.232;5.176;2024-03-08T03:00:24;101777.59;;;-0.07;79.77
85683;BME280;76253;52.232;5.176;2024-03-08T03:02:50;101773.41;;;-0.11;79.38
85683;BME280;76253;52.232;5.176;2024-03-08T03:05:25;101775.06;;;-0.10;79.74
85683;BME280;76253;52.232;5.176;2024-03-08T03:07:51;101778.50;;;-0.08;79.52
85683;BME280;76253;52.232;5.176;2024-03-08T03:10:17;101766.50;;;-0.10;79.43
85683;BME280;76253;52.232;5.176;2024-03-08T03:12:43;101762.22;;;-0.13;79.55
85683;BME280;76253;52.232;5.176;2024-03-08T03:15:10;101760.47;;;-0.11;79.66
85683;BME280;76253;52.232;5.176;2024-03-08T03:17:37;101760.47;;;-0.11;79.57
85683;BME280;76253;52.232;5.176;2024-03-08T03:20:05;101764.81;;;-0.13;79.51
85683;BME280;76253;52.232;5.176;2024-03-08T03:22:36;101758.03;;;-0.17;79.84
85683;BME280;76253;52.232;5.176;2024-03-08T03:25:01;101753.66;;;-0.15;80.38
85683;BME280;76253;52.232;5.176;2024-03-08T03:27:29;101757.09;;;-0.14;79.59
85683;BME280;76253;52.232;5.176;2024-03-08T03:29:55;101751.13;;;-0.16;79.52
85683;BME280;76253;52.232;5.176;2024-03-08T03:32:22;101745.28;;;-0.24;79.72
85683;BME280;76253;52.232;5.176;2024-03-08T03:34:48;101753.84;;;-0.21;79.63
85683;BME280;76253;52.232;5.176;2024-03-08T03:37:18;101746.13;;;-0.24;79.68
85683;BME280;76253;52.232;5.176;2024-03-08T03:39:44;101745.34;;;-0.26;79.59
85683;BME280;76253;52.232;5.176;2024-03-08T03:42:19;101747.13;;;-0.28;79.21
85683;BME280;76253;52.232;5.176;2024-03-08T03:44:47;101746.34;;;-0.30;80.49
85683;BME280;76253;52.232;5.176;2024-03-08T03:47:13;101739.47;;;-0.32;79.67
85683;BME280;76253;52.232;5.176;2024-03-08T03:49:40;101735.31;;;-0.38;79.92
85683;BME280;76253;52.232;5.176;2024-03-08T03:52:06;101737.00;;;-0.35;79.44
85683;BME280;76253;52.232;5.176;2024-03-08T03:54:31;101733.59;;;-0.37;79.47
85683;BME280;76253;52.232;5.176;2024-03-08T03:56:58;101729.34;;;-0.40;79.48
85683;BME280;76253;52.232;5.176;2024-03-08T03:59:23;101736.25;;;-0.40;79.49
85683;BME280;76253;52.232;5.176;2024-03-08T04:01:49;101733.81;;;-0.45;79.54
85683;BME280;76253;52.232;5.176;2024-03-08T04:04:16;101730.38;;;-0.46;79.99
85683;BME280;76253;52.232;5.176;2024-03-08T04:06:42;101732.25;;;-0.52;79.75
85683;BME280;76253;52.232;5.176;2024-03-08T04:09:07;101718.50;;;-0.54;79.28
85683;BME280;76253;52.232;5.176;2024-03-08T04:11:33;101729.63;;;-0.51;79.67
85683;BME280;76253;52.232;5.176;2024-03-08T04:13:59;101732.16;;;-0.49;79.68
85683;BME280;76253;52.232;5.176;2024-03-08T04:16:24;101722.78;;;-0.53;79.74
85683;BME280;76253;52.232;5.176;2024-03-08T04:18:51;101709.97;;;-0.58;79.80
85683;BME280;76253;52.232;5.176;2024-03-08T04:21:17;101725.47;;;-0.56;79.48
85683;BME280;76253;52.232;5.176;2024-03-08T04:23:44;101723.72;;;-0.56;79.58
85683;BME280;76253;52.232;5.176;2024-03-08T04:26:10;101722.88;;;-0.56;79.72
85683;BME280;76253;52.232;5.176;2024-03-08T04:28:35;101713.56;;;-0.63;79.82
85683;BME280;76253;52.232;5.176;2024-03-08T04:31:02;101718.72;;;-0.62;79.22
85683;BME280;76253;52.232;5.176;2024-03-08T04:33:29;101702.38;;;-0.64;79.88
85683;BME280;76253;52.232;5.176;2024-03-08T04:35:55;101703.28;;;-0.65;79.71
85683;BME280;76253;52.232;5.176;2024-03-08T04:38:21;101710.94;;;-0.62;79.58
85683;BME280;76253;52.232;5.176;2024-03-08T04:40:48;101706.72;;;-0.64;79.29
85683;BME280;76253;52.232;5.176;2024-03-08T04:43:14;101712.69;;;-0.62;79.32
85683;BME280;76253;52.232;5.176;2024-03-08T04:45:39;101703.34;;;-0.68;79.46
85683;BME280;76253;52.232;5.176;2024-03-08T04:48:07;101696.53;;;-0.70;79.86
85683;BME280;76253;52.232;5.176;2024-03-08T04:50:33;101704.22;;;-0.69;79.95
85683;BME280;76253;52.232;5.176;2024-03-08T04:52:59;101689.81;;;-0.77;79.45
85683;BME280;76253;52.232;5.176;2024-03-08T04:55:24;101698.41;;;-0.75;79.70
85683;BME280;76253;52.232;5.176;2024-03-08T04:57:50;101695.81;;;-0.75;79.56
85683;BME280;76253;52.232;5.176;2024-03-08T05:00:15;101694.13;;;-0.78;79.84
85683;BME280;76253;52.232;5.176;2024-03-08T05:02:41;101695.94;;;-0.80;79.52
85683;BME280;76253;52.232;5.176;2024-03-08T05:05:07;101692.56;;;-0.83;79.72
85683;BME280;76253;52.232;5.176;2024-03-08T05:07:33;101695.97;;;-0.81;79.60
85683;BME280;76253;52.232;5.176;2024-03-08T05:09:59;101698.44;;;-0.78;79.51
85683;BME280;76253;52.232;5.176;2024-03-08T05:12:24;101694.06;;;-0.75;79.54
85683;BME280;76253;52.232;5.176;2024-03-08T05:14:50;101688.84;;;-0.73;79.38
85683;BME280;76253;52.232;5.176;2024-03-08T05:17:16;101686.31;;;-0.75;79.63
85683;BME280;76253;52.232;5.176;2024-03-08T05:19:42;101693.94;;;-0.70;79.12
85683;BME280;76253;52.232;5.176;2024-03-08T05:22:07;101678.50;;;-0.73;79.51
85683;BME280;76253;52.232;5.176;2024-03-08T05:24:33;101684.41;;;-0.68;79.80
85683;BME280;76253;52.232;5.176;2024-03-08T05:26:59;101690.34;;;-0.65;79.34
85683;BME280;76253;52.232;5.176;2024-03-08T05:29:25;101684.38;;;-0.67;79.36
85683;BME280;76253;52.232;5.176;2024-03-08T05:31:51;101679.09;;;-0.64;79.80
85683;BME280;76253;52.232;5.176;2024-03-08T05:34:20;101677.47;;;-0.66;79.41
85683;BME280;76253;52.232;5.176;2024-03-08T05:36:47;101675.69;;;-0.64;79.25
85683;BME280;76253;52.232;5.176;2024-03-08T05:39:18;101656.06;;;-0.73;79.59
85683;BME280;76253;52.232;5.176;2024-03-08T05:41:45;101661.91;;;-0.65;79.88
85683;BME280;76253;52.232;5.176;2024-03-08T05:44:11;101676.34;;;-0.58;79.62
85683;BME280;76253;52.232;5.176;2024-03-08T05:46:37;101670.38;;;-0.60;79.29
85683;BME280;76253;52.232;5.176;2024-03-08T05:49:06;101665.25;;;-0.61;79.59
85683;BME280;76253;52.232;5.176;2024-03-08T05:51:35;101668.56;;;-0.56;79.69
85683;BME280;76253;52.232;5.176;2024-03-08T05:54:06;101660.06;;;-0.61;79.44
85683;BME280;76253;52.232;5.176;2024-03-08T05:56:35;101648.06;;;-0.64;79.68
85683;BME280;76253;52.232;5.176;2024-03-08T05:59:01;101665.88;;;-0.53;79.39
85683;BME280;76253;52.232;5.176;2024-03-08T06:01:27;101662.50;;;-0.55;79.47
85683;BME280;76253;52.232;5.176;2024-03-08T06:03:53;101664.09;;;-0.51;79.43
85683;BME280;76253;52.232;5.176;2024-03-08T06:06:21;101651.19;;;-0.51;79.37
85683;BME280;76253;52.232;5.176;2024-03-08T06:08:47;101658.13;;;-0.53;79.64
85683;BME280;76253;52.232;5.176;2024-03-08T06:11:17;101652.81;;;-0.49;79.18
85683;BME280;76253;52.232;5.176;2024-03-08T06:13:44;101648.44;;;-0.47;79.12
85683;BME280;76253;52.232;5.176;2024-03-08T06:16:10;101637.38;;;-0.52;79.23
85683;BME280;76253;52.232;5.176;2024-03-08T06:18:35;101647.38;;;-0.39;80.27
85683;BME280;76253;52.232;5.176;2024-03-08T06:21:09;101652.66;;;-0.43;79.29
85683;BME280;76253;52.232;5.176;2024-03-08T06:23:36;101638.84;;;-0.43;79.50
85683;BME280;76253;52.232;5.176;2024-03-08T06:26:07;101658.56;;;-0.39;79.35
85683;BME280;76253;52.232;5.176;2024-03-08T06:28:33;101646.41;;;-0.35;79.36
85683;BME280;76253;52.232;5.176;2024-03-08T06:30:59;101649.78;;;-0.33;79.54
85683;BME280;76253;52.232;5.176;2024-03-08T06:33:25;101648.88;;;-0.31;79.61
85683;BME280;76253;52.232;5.176;2024-03-08T06:35:54;101654.81;;;-0.27;79.34
85683;BME280;76253;52.232;5.176;2024-03-08T06:38:25;101650.47;;;-0.27;79.27
85683;BME280;76253;52.232;5.176;2024-03-08T06:40:51;101639.94;;;-0.21;79.73
85683;BME280;76253;52.232;5.176;2024-03-08T06:43:17;101644.13;;;-0.17;79.57
85683;BME280;76253;52.232;5.176;2024-03-08T06:45:44;101644.09;;;-0.15;79.07
85683;BME280;76253;52.232;5.176;2024-03-08T06:48:14;101638.06;;;-0.16;79.09
85683;BME280;76253;52.232;5.176;2024-03-08T06:50:41;101637.13;;;-0.13;79.67
85683;BME280;76253;52.232;5.176;2024-03-08T06:53:06;101639.69;;;-0.12;78.86
85683;BME280;76253;52.232;5.176;2024-03-08T06:55:31;101632.78;;;-0.13;79.07
85683;BME280;76253;52.232;5.176;2024-03-08T06:57:59;101631.06;;;-0.12;79.20
85683;BME280;76253;52.232;5.176;2024-03-08T07:00:24;101636.09;;;-0.08;79.45
85683;BME280;76253;52.232;5.176;2024-03-08T07:02:52;101635.19;;;-0.05;79.53
85683;BME280;76253;52.232;5.176;2024-03-08T07:05:19;101634.97;;;0.01;79.35
85683;BME280;76253;52.232;5.176;2024-03-08T07:07:44;101623.69;;;0.04;79.36
85683;BME280;76253;52.232;5.176;2024-03-08T07:10:10;101627.13;;;0.04;79.41
85683;BME280;76253;52.232;5.176;2024-03-08T07:12:37;101636.31;;;0.14;79.32
85683;BME280;76253;52.232;5.176;2024-03-08T07:15:04;101619.03;;;0.15;79.54
85683;BME280;76253;52.232;5.176;2024-03-08T07:17:31;101627.44;;;0.21;79.61
85683;BME280;76253;52.232;5.176;2024-03-08T07:19:56;101626.38;;;0.28;79.13
85683;BME280;76253;52.232;5.176;2024-03-08T07:22:24;101617.56;;;0.34;79.34
85683;BME280;76253;52.232;5.176;2024-03-08T07:24:50;101620.84;;;0.39;79.46
85683;BME280;76253;52.232;5.176;2024-03-08T07:27:35;101618.84;;;0.47;79.52
85683;BME280;76253;52.232;5.176;2024-03-08T07:30:02;101623.00;;;0.53;79.57
85683;BME280;76253;52.232;5.176;2024-03-08T07:32:27;101601.41;;;0.52;79.81
85683;BME280;76253;52.232;5.176;2024-03-08T07:34:57;101612.28;;;0.63;79.18
85683;BME280;76253;52.232;5.176;2024-03-08T07:37:23;101614.59;;;0.71;79.17
85683;BME280;76253;52.232;5.176;2024-03-08T07:39:49;101603.28;;;0.73;79.04
85683;BME280;76253;52.232;5.176;2024-03-08T07:42:15;101603.81;;;0.83;79.33
85683;BME280;76253;52.232;5.176;2024-03-08T07:44:42;101597.59;;;0.89;79.44
85683;BME280;76253;52.232;5.176;2024-03-08T07:47:07;101608.56;;;0.95;79.28
85683;BME280;76253;52.232;5.176;2024-03-08T07:49:37;101589.38;;;1.01;78.91
85683;BME280;76253;52.232;5.176;2024-03-08T07:52:04;101595.97;;;1.09;79.09
85683;BME280;76253;52.232;5.176;2024-03-08T07:54:30;101594.88;;;1.16;79.23
85683;BME280;76253;52.232;5.176;2024-03-08T07:56:55;101580.16;;;1.17;79.41
85683;BME280;76253;52.232;5.176;2024-03-08T07:59:21;101587.38;;;1.32;79.27
85683;BME280;76253;52.232;5.176;2024-03-08T08:01:46;101579.53;;;1.34;79.08
85683;BME280;76253;52.232;5.176;2024-03-08T08:04:12;101582.50;;;1.48;78.37
85683;BME280;76253;52.232;5.176;2024-03-08T08:06:40;101581.34;;;1.55;78.72
85683;BME280;76253;52.232;5.176;2024-03-08T08:09:08;101575.06;;;1.60;78.92
85683;BME280;76253;52.232;5.176;2024-03-08T08:11:43;101579.06;;;1.69;78.39
85683;BME280;76253;52.232;5.176;2024-03-08T08:14:09;101574.50;;;1.76;77.86
85683;BME280;76253;52.232;5.176;2024-03-08T08:16:35;101562.91;;;1.84;78.51
85683;BME280;76253;52.232;5.176;2024-03-08T08:19:02;101561.81;;;1.90;77.64
85683;BME280;76253;52.232;5.176;2024-03-08T08:21:33;101557.25;;;1.96;77.19
85683;BME280;76253;52.232;5.176;2024-03-08T08:23:59;101565.56;;;2.04;77.26
85683;BME280;76253;52.232;5.176;2024-03-08T08:26:25;101565.19;;;2.13;77.37
85683;BME280;76253;52.232;5.176;2024-03-08T08:28:51;101551.13;;;2.19;76.73
85683;BME280;76253;52.232;5.176;2024-03-08T08:31:18;101550.81;;;2.27;76.86
85683;BME280;76253;52.232;5.176;2024-03-08T08:33:44;101538.47;;;2.32;77.05
85683;BME280;76253;52.232;5.176;2024-03-08T08:36:10;101542.38;;;2.42;76.47
85683;BME280;76253;52.232;5.176;2024-03-08T08:38:40;101536.88;;;2.49;77.06
85683;BME280;76253;52.232;5.176;2024-03-08T08:41:09;101538.41;;;2.53;76.80
85683;BME280;76253;52.232;5.176;2024-03-08T08:43:34;101527.72;;;2.61;76.56
85683;BME280;76253;52.232;5.176;2024-03-08T08:46:00;101538.47;;;2.72;76.14
85683;BME280;76253;52.232;5.176;2024-03-08T08:48:27;101533.06;;;2.77;76.04
85683;BME280;76253;52.232;5.176;2024-03-08T08:50:56;101537.06;;;2.85;76.31
85683;BME280;76253;52.232;5.176;2024-03-08T08:53:21;101538.56;;;2.91;75.50
85683;BME280;76253;52.232;5.176;2024-03-08T08:55:48;101532.94;;;3.00;75.54
85683;BME280;76253;52.232;5.176;2024-03-08T08:58:13;101530.97;;;3.05;75.33
85683;BME280;76253;52.232;5.176;2024-03-08T09:00:39;101527.38;;;3.08;75.55
85683;BME280;76253;52.232;5.176;2024-03-08T09:03:05;101521.00;;;3.15;75.12
85683;BME280;76253;52.232;5.176;2024-03-08T09:05:32;101521.75;;;3.17;75.22
85683;BME280;76253;52.232;5.176;2024-03-08T09:07:57;101500.72;;;3.21;74.87
85683;BME280;76253;52.232;5.176;2024-03-08T09:10:23;101512.34;;;3.33;75.11
85683;BME280;76253;52.232;5.176;2024-03-08T09:12:48;101508.47;;;3.41;74.63
85683;BME280;76253;52.232;5.176;2024-03-08T09:15:14;101501.44;;;3.43;73.98
85683;BME280;76253;52.232;5.176;2024-03-08T09:17:39;101500.06;;;3.55;74.47
85683;BME280;76253;52.232;5.176;2024-03-08T09:20:08;101503.13;;;3.63;74.54
85683;BME280;76253;52.232;5.176;2024-03-08T09:22:35;101493.34;;;3.68;74.37
85683;BME280;76253;52.232;5.176;2024-03-08T09:25:01;101494.66;;;3.77;74.32
85683;BME280;76253;52.232;5.176;2024-03-08T09:27:27;101486.63;;;3.81;74.20
85683;BME280;76253;52.232;5.176;2024-03-08T09:29:53;101483.56;;;3.90;74.12
85683;BME280;76253;52.232;5.176;2024-03-08T09:32:18;101481.34;;;4.00;73.91
85683;BME280;76253;52.232;5.176;2024-03-08T09:34:43;101471.47;;;4.07;73.94
85683;BME280;76253;52.232;5.176;2024-03-08T09:37:09;101467.72;;;4.12;73.53
85683;BME280;76253;52.232;5.176;2024-03-08T09:39:35;101469.03;;;4.21;73.45
85683;BME280;76253;52.232;5.176;2024-03-08T09:42:01;101464.28;;;4.29;73.18
85683;BME280;76253;52.232;5.176;2024-03-08T09:44:26;101462.13;;;4.37;72.89
85683;BME280;76253;52.232;5.176;2024-03-08T09:46:54;101450.38;;;4.46;72.22
85683;BME280;76253;52.232;5.176;2024-03-08T09:49:20;101457.03;;;4.51;72.38
85683;BME280;76253;52.232;5.176;2024-03-08T09:51:45;101442.00;;;4.56;72.61
85683;BME280;76253;52.232;5.176;2024-03-08T09:54:11;101440.59;;;4.66;72.68
85683;BME280;76253;52.232;5.176;2024-03-08T09:56:38;101438.59;;;4.71;72.53
85683;BME280;76253;52.232;5.176;2024-03-08T09:59:06;101433.72;;;4.81;71.84
85683;BME280;76253;52.232;5.176;2024-03-08T10:01:39;101426.44;;;4.88;71.56
85683;BME280;76253;52.232;5.176;2024-03-08T10:04:05;101424.25;;;4.96;71.85
85683;BME280;76253;52.232;5.176;2024-03-08T10:06:30;101420.53;;;5.00;71.41
85683;BME280;76253;52.232;5.176;2024-03-08T10:08:59;101415.75;;;5.08;71.54
85683;BME280;76253;52.232;5.176;2024-03-08T10:11:26;101414.56;;;5.13;71.71
85683;BME280;76253;52.232;5.176;2024-03-08T10:13:54;101416.50;;;5.26;71.41
85683;BME280;76253;52.232;5.176;2024-03-08T10:16:19;101398.03;;;5.29;71.58
85683;BME280;76253;52.232;5.176;2024-03-08T10:18:45;101397.44;;;5.39;70.83
85683;BME280;76253;52.232;5.176;2024-03-08T10:21:11;101390.53;;;5.54;71.01
85683;BME280;76253;52.232;5.176;2024-03-08T10:23:48;101389.91;;;5.64;70.85
85683;BME280;76253;52.232;5.176;2024-03-08T10:26:16;101399.09;;;5.72;71.01
85683;BME280;76253;52.232;5.176;2024-03-08T10:28:45;101378.78;;;5.77;70.17
85683;BME280;76253;52.232;5.176;2024-03-08T10:31:10;101389.03;;;5.95;70.28
85683;BME280;76253;52.232;5.176;2024-03-08T10:33:38;101361.28;;;5.93;69.96
85683;BME280;76253;52.232;5.176;2024-03-08T10:36:09;101368.22;;;6.08;69.15
85683;BME280;76253;52.232;5.176;2024-03-08T10:38:38;101359.00;;;6.17;69.16
85683;BME280;76253;52.232;5.176;2024-03-08T10:41:11;101342.91;;;6.08;69.59
85683;BME280;76253;52.232;5.176;2024-03-08T10:46:30;101335.63;;;6.28;68.12
85683;BME280;76253;52.232;5.176;2024-03-08T10:48:58;101345.00;;;6.46;68.87
85683;BME280;76253;52.232;5.176;2024-03-08T10:51:29;101332.66;;;6.48;68.83
85683;BME280;76253;52.232;5.176;2024-03-08T10:53:57;101324.63;;;6.51;68.51
85683;BME280;76253;52.232;5.176;2024-03-08T10:56:24;101313.97;;;6.54;68.61
85683;BME280;76253;52.232;5.176;2024-03-08T10:58:53;101311.53;;;6.65;68.77
85683;BME280;76253;52.232;5.176;2024-03-08T11:01:18;101316.16;;;6.74;65.42
85683;BME280;76253;52.232;5.176;2024-03-08T11:03:46;101307.44;;;6.88;67.52
85683;BME280;76253;52.232;5.176;2024-03-08T11:06:30;101310.00;;;7.02;66.67
85683;BME280;76253;52.232;5.176;2024-03-08T11:08:57;101311.94;;;7.13;67.25
85683;BME280;76253;52.232;5.176;2024-03-08T11:11:33;101293.81;;;7.10;66.01
85683;BME280;76253;52.232;5.176;2024-03-08T11:14:00;101286.28;;;7.18;67.01
85683;BME280;76253;52.232;5.176;2024-03-08T11:19:00;101273.44;;;7.40;65.26
85683;BME280;76253;52.232;5.176;2024-03-08T11:21:30;101263.28;;;7.35;65.92
85683;BME280;76253;52.232;5.176;2024-03-08T11:24:02;101274.13;;;7.56;66.64
85683;BME280;76253;52.232;5.176;2024-03-08T11:26:30;101258.91;;;7.61;65.68
85683;BME280;76253;52.232;5.176;2024-03-08T11:32:17;101252.75;;;7.88;65.57
85683;BME280;76253;52.232;5.176;2024-03-08T11:34:48;101231.44;;;7.79;65.37
85683;BME280;76253;52.232;5.176;2024-03-08T11:37:16;101243.31;;;7.98;65.68
85683;BME280;76253;52.232;5.176;2024-03-08T11:40:01;101232.50;;;8.02;61.64
85683;BME280;76253;52.232;5.176;2024-03-08T11:42:30;101235.31;;;8.12;64.20
85683;BME280;76253;52.232;5.176;2024-03-08T11:44:56;101233.50;;;8.25;63.70
85683;BME280;76253;52.232;5.176;2024-03-08T11:47:23;101209.50;;;8.18;63.80
85683;BME280;76253;52.232;5.176;2024-03-08T11:49:48;101203.41;;;8.31;64.37
85683;BME280;76253;52.232;5.176;2024-03-08T11:52:15;101203.50;;;8.65;63.02
85683;BME280;76253;52.232;5.176;2024-03-08T11:54:41;101185.22;;;8.64;63.37
85683;BME280;76253;52.232;5.176;2024-03-08T11:57:08;101185.88;;;9.02;63.74
85683;BME280;76253;52.232;5.176;2024-03-08T11:59:36;101163.28;;;9.46;63.16
85683;BME280;76253;52.232;5.176;2024-03-08T12:02:11;101166.75;;;10.02;62.05
85683;BME280;76253;52.232;5.176;2024-03-08T12:04:36;101173.88;;;10.56;64.76
85683;BME280;76253;52.232;5.176;2024-03-08T12:07:02;101175.50;;;11.00;53.07
85683;BME280;76253;52.232;5.176;2024-03-08T12:09:28;101168.69;;;11.39;66.66
85683;BME280;76253;52.232;5.176;2024-03-08T12:11:54;101148.38;;;11.81;67.11
85683;BME280;76253;52.232;5.176;2024-03-08T12:14:20;101142.56;;;12.46;67.01
85683;BME280;76253;52.232;5.176;2024-03-08T12:16:47;101153.31;;;13.12;66.71
85683;BME280;76253;52.232;5.176;2024-03-08T12:19:13;101132.28;;;13.66;68.00
85683;BME280;76253;52.232;5.176;2024-03-08T12:21:43;101159.59;;;13.94;60.44
85683;BME280;76253;52.232;5.176;2024-03-08T12:24:15;101137.78;;;14.10;63.74
85683;BME280;76253;52.232;5.176;2024-03-08T12:26:44;101140.50;;;14.18;63.94
85683;BME280;76253;52.232;5.176;2024-03-08T12:29:26;101132.00;;;14.42;57.36
85683;BME280;76253;52.232;5.176;2024-03-08T12:31:59;101119.50;;;14.34;59.68
85683;BME280;76253;52.232;5.176;2024-03-08T12:34:30;101139.47;;;14.74;60.33
85683;BME280;76253;52.232;5.176;2024-03-08T12:36:57;101116.38;;;15.09;59.11
85683;BME280;76253;52.232;5.176;2024-03-08T12:39:24;101102.44;;;15.33;58.39
85683;BME280;76253;52.232;5.176;2024-03-08T12:41:55;101114.72;;;16.02;59.13
85683;BME280;76253;52.232;5.176;2024-03-08T12:44:22;101093.53;;;16.26;57.74
85683;BME280;76253;52.232;5.176;2024-03-08T12:46:49;101085.78;;;16.65;57.61
85683;BME280;76253;52.232;5.176;2024-03-08T12:49:20;101106.88;;;16.42;55.29
85683;BME280;76253;52.232;5.176;2024-03-08T12:51:47;101095.06;;;16.53;55.61
85683;BME280;76253;52.232;5.176;2024-03-08T12:54:13;101103.25;;;16.76;55.17
85683;BME280;76253;52.232;5.176;2024-03-08T12:56:39;101094.59;;;16.98;54.67
85683;BME280;76253;52.232;5.176;2024-03-08T12:59:06;101102.66;;;17.37;54.31
85683;BME280;76253;52.232;5.176;2024-03-08T13:01:33;101063.56;;;17.46;53.96
85683;BME280;76253;52.232;5.176;2024-03-08T13:03:59;101089.19;;;17.94;53.64